Time;durP1;ratioP1;P1;durP2;ratioP2;P2;SDS_P1;SDS_P2;PMS_P1;PMS_P2;Temp;Humidity;BMP_temperature;BMP_pressure;BME280_temperature;BME280_humidity;BME280_pressure;Samples;Min_cycle;Max_cycle;Signal;HPM_P1;HPM_P2
2023/06/02 00:00:47;;;;;;;9.33;3.37;;;17.60;99.90;;;;;;4993117;28;20404;-69
2023/06/02 00:03:14;;;;;;;8.38;3.00;;;17.50;99.90;;;;;;4993519;28;20777;-69
2023/06/02 00:05:40;;;;;;;9.10;3.30;;;17.40;99.90;;;;;;4995557;28;20734;-69
2023/06/02 00:08:06;;;;;;;10.05;3.20;;;17.30;99.90;;;;;;4994405;28;20449;-69
2023/06/02 00:10:31;;;;;;;9.18;2.97;;;17.20;99.90;;;;;;4995361;28;20402;-69
2023/06/02 00:12:57;;;;;;;11.55;3.90;;;17.10;99.90;;;;;;5006634;28;20436;-69
2023/06/02 00:15:23;;;;;;;9.83;3.00;;;17.00;99.90;;;;;;4992085;28;20420;-69
2023/06/02 00:17:48;;;;;;;8.67;3.30;;;17.00;99.90;;;;;;4993886;28;20401;-69
2023/06/02 00:20:17;;;;;;;9.52;3.50;;;16.90;99.90;;;;;;4994387;28;20728;-69
2023/06/02 00:22:46;;;;;;;8.93;3.20;;;16.90;99.90;;;;;;4995562;28;22042;-69
2023/06/02 00:25:12;;;;;;;11.52;3.67;;;16.90;99.90;;;;;;4994622;28;20504;-69
2023/06/02 00:27:38;;;;;;;10.00;3.65;;;17.00;99.90;;;;;;4994154;28;20479;-69
2023/06/02 00:30:04;;;;;;;9.20;3.70;;;17.00;99.90;;;;;;4992803;28;20418;-69
2023/06/02 00:32:29;;;;;;;8.18;3.60;;;17.10;99.90;;;;;;4990901;28;20485;-69
2023/06/02 00:34:55;;;;;;;10.00;3.00;;;17.00;99.90;;;;;;4995742;28;20798;-69
2023/06/02 00:37:20;;;;;;;10.00;3.60;;;17.10;99.90;;;;;;4995265;28;20396;-69
2023/06/02 00:39:46;;;;;;;9.80;3.60;;;17.10;99.90;;;;;;4993090;28;20405;-69
2023/06/02 00:42:12;;;;;;;9.63;3.70;;;17.00;99.90;;;;;;4991341;28;20444;-69
2023/06/02 00:44:38;;;;;;;10.03;3.87;;;17.00;99.90;;;;;;4991857;28;20525;-69
2023/06/02 00:47:03;;;;;;;10.50;3.55;;;17.00;99.90;;;;;;4994929;28;20483;-69
2023/06/02 00:49:29;;;;;;;10.35;3.55;;;17.00;99.90;;;;;;4994366;28;20441;-69
2023/06/02 00:51:55;;;;;;;9.30;3.27;;;17.00;99.90;;;;;;4991809;28;20395;-69
2023/06/02 00:54:20;;;;;;;8.20;3.38;;;16.90;99.90;;;;;;4993685;28;20474;-69
2023/06/02 00:56:46;;;;;;;9.43;2.95;;;16.80;99.90;;;;;;4995075;28;20488;-69
2023/06/02 00:59:12;;;;;;;10.23;3.40;;;16.80;99.90;;;;;;4993066;28;20406;-69
2023/06/02 01:01:39;;;;;;;9.00;3.47;;;16.80;99.90;;;;;;4990596;28;20397;-69
2023/06/02 01:04:07;;;;;;;9.88;3.50;;;16.80;99.90;;;;;;4993922;28;20449;-69
2023/06/02 01:06:35;;;;;;;9.65;3.67;;;16.90;99.90;;;;;;5000197;28;20405;-69
2023/06/02 01:09:03;;;;;;;13.23;3.25;;;16.90;99.90;;;;;;4999074;28;20400;-68
2023/06/02 01:11:29;;;;;;;9.05;3.60;;;16.90;99.90;;;;;;4991190;28;20419;-69
2023/06/02 01:13:55;;;;;;;8.03;3.43;;;16.80;99.90;;;;;;4994241;28;20953;-69
2023/06/02 01:16:20;;;;;;;11.45;3.75;;;16.80;99.90;;;;;;4992667;28;20492;-69
2023/06/02 01:18:49;;;;;;;11.00;3.53;;;16.80;99.90;;;;;;4997138;28;20570;-69
2023/06/02 01:21:21;;;;;;;8.25;3.35;;;16.80;99.90;;;;;;4997261;28;20532;-68
2023/06/02 01:23:49;;;;;;;8.00;3.03;;;16.80;99.90;;;;;;4993814;28;20434;-69
2023/06/02 01:26:15;;;;;;;9.70;3.40;;;16.80;99.90;;;;;;4996267;28;20393;-68
2023/06/02 01:28:40;;;;;;;11.02;3.40;;;16.80;99.90;;;;;;4995714;28;20428;-68
2023/06/02 01:31:11;;;;;;;9.90;3.30;;;16.80;99.90;;;;;;4996148;28;20411;-69
2023/06/02 01:34:04;;;;;;;9.45;3.60;;;16.80;99.90;;;;;;4996648;28;20383;-69
2023/06/02 01:36:32;;;;;;;8.43;3.42;;;16.80;99.90;;;;;;4997327;28;20462;-68
2023/06/02 01:39:00;;;;;;;10.73;3.90;;;16.70;99.90;;;;;;4996847;28;20548;-68
2023/06/02 01:41:27;;;;;;;11.85;3.60;;;16.80;99.90;;;;;;4995715;28;20405;-69
2023/06/02 01:43:56;;;;;;;9.65;3.45;;;16.70;99.90;;;;;;4997610;28;20697;-68
2023/06/02 01:46:24;;;;;;;9.27;3.60;;;16.60;99.90;;;;;;4996902;28;20440;-69
2023/06/02 01:48:53;;;;;;;8.60;3.28;;;16.60;99.90;;;;;;4994554;28;20525;-68
2023/06/02 01:51:19;;;;;;;8.80;3.28;;;16.60;99.90;;;;;;4996067;28;20411;-69
2023/06/02 01:53:44;;;;;;;9.48;3.15;;;16.50;99.90;;;;;;4998280;28;20395;-68
2023/06/02 01:56:10;;;;;;;9.63;3.70;;;16.40;99.90;;;;;;4996126;28;20738;-68
2023/06/02 01:58:36;;;;;;;10.35;3.50;;;16.40;99.90;;;;;;4996383;28;20420;-69
2023/06/02 02:01:02;;;;;;;13.40;4.15;;;16.50;99.90;;;;;;4996252;28;20437;-68
2023/06/02 02:03:29;;;;;;;10.83;3.73;;;16.50;99.90;;;;;;4995744;28;20545;-69
2023/06/02 02:05:55;;;;;;;10.40;3.72;;;16.50;99.90;;;;;;4999543;28;20477;-69
2023/06/02 02:08:21;;;;;;;9.82;3.50;;;16.50;99.90;;;;;;4993726;28;20452;-69
2023/06/02 02:10:46;;;;;;;9.98;4.18;;;16.50;99.90;;;;;;4995227;28;20408;-69
2023/06/02 02:13:12;;;;;;;9.15;3.70;;;16.40;99.90;;;;;;4995599;28;20399;-68
2023/06/02 02:15:38;;;;;;;11.20;4.10;;;16.30;99.90;;;;;;5000142;28;20406;-69
2023/06/02 02:18:04;;;;;;;10.30;4.00;;;16.30;99.90;;;;;;4993736;28;20412;-68
2023/06/02 02:20:30;;;;;;;11.15;4.10;;;16.20;99.90;;;;;;4994387;28;20400;-68
2023/06/02 02:22:55;;;;;;;9.95;3.55;;;16.20;99.90;;;;;;4994734;28;20426;-68
2023/06/02 02:25:21;;;;;;;11.85;4.20;;;16.20;99.90;;;;;;4994849;28;20403;-68
2023/06/02 02:27:46;;;;;;;13.57;4.07;;;16.20;99.90;;;;;;4994279;28;20416;-68
2023/06/02 02:30:12;;;;;;;12.10;4.10;;;16.10;99.90;;;;;;4993655;28;20406;-68
2023/06/02 02:32:44;;;;;;;11.33;4.17;;;16.20;99.90;;;;;;4995543;28;20482;-68
2023/06/02 02:35:10;;;;;;;12.50;4.13;;;16.10;99.90;;;;;;4997004;28;20399;-68
2023/06/02 02:37:36;;;;;;;10.00;4.10;;;16.00;99.90;;;;;;4995738;28;20751;-69
2023/06/02 02:40:03;;;;;;;10.37;3.90;;;16.00;99.90;;;;;;4995287;28;20393;-68
2023/06/02 02:42:29;;;;;;;11.55;4.28;;;15.80;99.90;;;;;;4996076;28;20420;-69
2023/06/02 02:44:54;;;;;;;14.98;4.53;;;15.80;99.90;;;;;;4997424;28;20420;-69
2023/06/02 02:47:20;;;;;;;10.30;3.90;;;15.70;99.90;;;;;;4996864;28;20926;-68
2023/06/02 02:49:46;;;;;;;11.87;3.80;;;15.70;99.90;;;;;;4992424;28;20402;-68
2023/06/02 02:52:12;;;;;;;10.80;4.13;;;15.70;99.90;;;;;;4995203;28;20880;-68
2023/06/02 02:54:38;;;;;;;11.40;4.10;;;15.60;99.90;;;;;;4995171;28;20481;-68
2023/06/02 02:57:07;;;;;;;10.95;4.47;;;15.50;99.90;;;;;;4994754;28;20413;-68
2023/06/02 02:59:35;;;;;;;10.65;3.97;;;15.50;99.90;;;;;;4993522;28;20406;-69
2023/06/02 03:02:03;;;;;;;10.75;4.60;;;15.50;99.90;;;;;;4992645;28;20506;-68
2023/06/02 03:04:28;;;;;;;11.60;3.92;;;15.50;99.90;;;;;;4994269;28;20427;-68
2023/06/02 03:06:55;;;;;;;11.43;4.10;;;15.30;99.90;;;;;;4995326;28;20455;-68
2023/06/02 03:09:21;;;;;;;14.63;5.17;;;15.20;99.90;;;;;;4992182;28;20797;-68
2023/06/02 03:11:46;;;;;;;12.35;4.60;;;15.30;99.90;;;;;;4995902;28;20573;-68
2023/06/02 03:14:12;;;;;;;10.82;4.25;;;15.20;99.90;;;;;;4996539;28;20439;-68
2023/06/02 03:16:41;;;;;;;11.18;4.40;;;15.30;99.90;;;;;;4992791;28;20596;-68
2023/06/02 03:19:13;;;;;;;12.32;4.70;;;15.20;99.90;;;;;;4991944;28;20426;-69
2023/06/02 03:21:41;;;;;;;11.00;4.10;;;15.20;99.90;;;;;;4991534;28;20397;-68
2023/06/02 03:24:16;;;;;;;11.98;4.70;;;15.20;99.90;;;;;;4994609;28;20439;-68
2023/06/02 03:26:42;;;;;;;12.45;5.10;;;15.20;99.90;;;;;;4993927;28;20426;-68
2023/06/02 03:29:12;;;;;;;11.60;4.40;;;15.20;99.90;;;;;;4995769;28;20402;-68
2023/06/02 03:31:38;;;;;;;10.70;4.50;;;15.20;99.90;;;;;;4996153;28;20973;-69
2023/06/02 03:34:04;;;;;;;15.48;4.60;;;15.00;99.90;;;;;;4994005;28;20492;-69
2023/06/02 03:36:34;;;;;;;11.30;4.32;;;14.90;99.90;;;;;;4991613;28;20510;-69
2023/06/02 03:39:05;;;;;;;9.93;4.50;;;15.00;99.90;;;;;;4993648;28;20930;-69
2023/06/02 03:41:31;;;;;;;10.85;4.30;;;15.00;99.90;;;;;;4993401;28;20409;-69
2023/06/02 03:43:56;;;;;;;10.82;4.68;;;15.00;99.90;;;;;;4991506;28;20448;-69
2023/06/02 03:46:22;;;;;;;11.85;4.93;;;15.00;99.90;;;;;;4993582;28;20390;-69
2023/06/02 03:48:47;;;;;;;9.43;3.60;;;15.00;99.90;;;;;;4994330;28;21047;-69
2023/06/02 03:51:13;;;;;;;12.83;5.30;;;15.00;99.90;;;;;;4993186;28;20685;-69
2023/06/02 03:53:38;;;;;;;11.80;4.90;;;15.10;99.90;;;;;;4992208;28;20421;-69
2023/06/02 03:56:04;;;;;;;11.23;4.85;;;15.10;99.90;;;;;;4990290;28;20748;-69
2023/06/02 03:58:30;;;;;;;14.77;4.35;;;15.20;99.90;;;;;;4993765;28;20400;-69
2023/06/02 04:00:56;;;;;;;12.17;5.13;;;15.20;99.90;;;;;;4995555;28;20411;-69
2023/06/02 04:03:22;;;;;;;12.80;4.80;;;15.20;99.90;;;;;;4993009;28;20498;-69
2023/06/02 04:05:48;;;;;;;9.98;4.15;;;15.10;99.90;;;;;;4991840;28;20915;-68
2023/06/02 04:08:14;;;;;;;10.80;4.70;;;15.00;99.90;;;;;;4992949;28;20425;-68
2023/06/02 04:10:40;;;;;;;12.60;5.05;;;14.80;99.90;;;;;;4993724;28;20395;-68
2023/06/02 04:13:06;;;;;;;12.75;5.55;;;14.80;99.90;;;;;;4990584;28;20422;-69
2023/06/02 04:15:31;;;;;;;11.10;5.00;;;14.80;1.00;;;;;;4988403;28;20790;-69
2023/06/02 04:17:57;;;;;;;12.80;4.37;;;14.80;1.00;;;;;;4991727;28;20429;-69
2023/06/02 04:20:23;;;;;;;11.73;5.10;;;14.80;1.00;;;;;;4999213;28;20390;-69
2023/06/02 04:22:48;;;;;;;10.60;4.23;;;15.00;1.00;;;;;;4996380;28;20405;-68
2023/06/02 04:25:14;;;;;;;10.63;4.50;;;15.10;1.00;;;;;;4998028;28;20457;-68
2023/06/02 04:27:39;;;;;;;14.00;4.90;;;15.10;1.00;;;;;;5007828;28;20501;-68
2023/06/02 04:30:06;;;;;;;13.05;4.45;;;15.10;1.00;;;;;;4999806;28;20878;-68
2023/06/02 04:32:32;;;;;;;12.50;4.80;;;15.10;1.00;;;;;;5000523;28;20428;-68
2023/06/02 04:34:58;;;;;;;11.43;4.93;;;15.00;1.00;;;;;;4999986;28;20393;-68
2023/06/02 04:37:26;;;;;;;14.20;5.40;;;15.10;1.00;;;;;;4997193;28;20748;-68
2023/06/02 04:39:52;;;;;;;13.43;5.50;;;15.10;1.00;;;;;;5002108;28;20472;-69
2023/06/02 04:42:17;;;;;;;11.40;5.03;;;15.10;1.00;;;;;;4991994;28;20817;-68
2023/06/02 04:44:44;;;;;;;10.70;4.40;;;15.20;1.00;;;;;;4993164;28;20535;-69
2023/06/02 04:47:10;;;;;;;12.68;5.10;;;15.30;1.00;;;;;;4992515;28;20406;-69
2023/06/02 04:49:37;;;;;;;12.70;5.32;;;15.40;1.00;;;;;;4996542;28;20428;-67
2023/06/02 04:52:09;;;;;;;11.63;4.53;;;15.60;1.00;;;;;;4990889;28;20440;-68
2023/06/02 04:54:35;;;;;;;13.18;4.75;;;16.10;1.00;;;;;;5002198;28;20503;-68
2023/06/02 04:57:00;;;;;;;12.10;4.78;;;16.90;99.90;;;;;;4993477;28;20957;-68
2023/06/02 04:59:27;;;;;;;11.68;5.00;;;18.00;99.90;;;;;;5003659;28;20511;-68
2023/06/02 05:01:52;;;;;;;14.30;5.28;;;18.50;99.90;;;;;;5002084;28;20449;-68
2023/06/02 05:04:19;;;;;;;11.75;4.38;;;19.30;99.90;;;;;;5002138;28;20529;-71
2023/06/02 05:06:45;;;;;;;12.93;4.70;;;20.30;99.90;;;;;;4993751;28;20406;-68
2023/06/02 05:09:11;;;;;;;10.55;4.78;;;21.00;99.90;;;;;;5000043;28;20402;-69
2023/06/02 05:11:37;;;;;;;12.85;4.70;;;21.70;99.90;;;;;;4996090;28;20506;-70
2023/06/02 05:14:02;;;;;;;13.25;5.22;;;20.80;99.90;;;;;;4995699;28;20503;-69
2023/06/02 05:16:29;;;;;;;15.13;5.38;;;20.70;99.90;;;;;;4997649;28;20503;-69
2023/06/02 05:18:55;;;;;;;13.63;5.53;;;21.50;99.90;;;;;;4992891;28;20407;-69
2023/06/02 05:21:21;;;;;;;14.90;5.20;;;21.50;99.90;;;;;;4997102;28;20476;-69
2023/06/02 05:23:46;;;;;;;13.17;5.17;;;21.60;99.90;;;;;;5001197;28;20764;-69
2023/06/02 05:26:12;;;;;;;12.87;5.23;;;22.00;99.90;;;;;;5006608;28;20830;-69
2023/06/02 05:28:37;;;;;;;12.33;4.90;;;22.70;99.90;;;;;;5009566;28;20418;-69
2023/06/02 05:31:03;;;;;;;9.93;4.80;;;22.80;99.90;;;;;;5003529;28;20403;-69
2023/06/02 05:33:28;;;;;;;10.00;4.37;;;22.30;99.90;;;;;;4990756;28;20430;-69
2023/06/02 05:35:54;;;;;;;12.20;5.10;;;22.10;99.90;;;;;;5005729;28;20397;-69
2023/06/02 05:38:19;;;;;;;10.50;4.25;;;22.00;99.90;;;;;;5009865;28;20492;-69
2023/06/02 05:40:45;;;;;;;12.55;5.50;;;22.80;99.90;;;;;;5009894;28;20977;-69
2023/06/02 05:43:10;;;;;;;13.35;4.55;;;23.30;99.90;;;;;;5009768;28;20412;-69
2023/06/02 05:45:36;;;;;;;10.07;4.55;;;24.20;99.90;;;;;;5009158;28;20409;-70
2023/06/02 05:48:01;;;;;;;11.80;4.67;;;24.40;99.90;;;;;;5009076;28;20527;-70
2023/06/02 05:50:27;;;;;;;11.93;5.20;;;25.10;99.90;;;;;;5010171;28;20442;-69
2023/06/02 05:52:52;;;;;;;13.90;5.53;;;24.80;99.90;;;;;;5008016;28;20473;-69
2023/06/02 05:55:18;;;;;;;9.63;4.93;;;25.20;99.90;;;;;;5006022;28;20571;-70
2023/06/02 05:57:43;;;;;;;11.63;5.20;;;24.60;99.90;;;;;;5008885;28;20895;-70
2023/06/02 06:00:10;;;;;;;10.25;4.25;;;25.00;99.90;;;;;;5010281;28;20438;-70
2023/06/02 06:02:35;;;;;;;10.50;4.80;;;24.10;99.90;;;;;;5010052;28;20412;-70
2023/06/02 06:05:01;;;;;;;11.45;5.25;;;23.80;99.90;;;;;;5009104;28;20417;-70
2023/06/02 06:07:27;;;;;;;10.18;4.88;;;24.60;99.90;;;;;;5010942;28;20427;-69
2023/06/02 06:09:52;;;;;;;11.90;4.80;;;25.30;99.90;;;;;;5011031;28;20397;-70
2023/06/02 06:12:18;;;;;;;12.05;5.25;;;25.20;99.90;;;;;;5008263;28;20493;-70
2023/06/02 06:14:43;;;;;;;10.20;4.40;;;25.80;99.90;;;;;;5009964;28;20523;-70
2023/06/02 06:17:09;;;;;;;10.50;5.18;;;24.80;99.90;;;;;;5009736;28;20385;-70
2023/06/02 06:19:35;;;;;;;10.70;4.63;;;24.70;99.90;;;;;;5010123;28;20401;-70
2023/06/02 06:22:01;;;;;;;11.25;5.10;;;25.40;99.90;;;;;;5009863;28;20432;-70
2023/06/02 06:24:26;;;;;;;13.23;5.55;;;25.90;99.90;;;;;;5009962;28;20420;-69
2023/06/02 06:26:52;;;;;;;9.05;4.32;;;24.60;99.90;;;;;;5010268;28;20385;-70
2023/06/02 06:29:17;;;;;;;9.40;3.90;;;24.80;99.90;;;;;;5010466;28;21081;-69
2023/06/02 06:31:43;;;;;;;8.97;4.23;;;24.10;99.90;;;;;;5009066;28;20819;-69
2023/06/02 06:34:09;;;;;;;11.00;4.73;;;23.60;99.90;;;;;;5009502;28;20441;-69
2023/06/02 06:36:35;;;;;;;10.63;4.50;;;23.90;99.90;;;;;;5012514;28;20431;-69
2023/06/02 06:39:00;;;;;;;9.32;4.28;;;25.00;99.90;;;;;;5012645;28;20772;-69
2023/06/02 06:41:27;;;;;;;12.00;4.50;;;25.00;99.90;;;;;;5010954;28;20393;-70
2023/06/02 06:43:53;;;;;;;9.98;4.50;;;24.40;99.90;;;;;;5011000;28;20424;-70
2023/06/02 06:46:18;;;;;;;10.00;4.60;;;24.30;99.90;;;;;;5008897;28;20400;-70
2023/06/02 06:48:44;;;;;;;10.93;4.70;;;25.30;99.90;;;;;;5009763;28;20415;-70
2023/06/02 06:51:09;;;;;;;10.20;5.00;;;25.90;99.90;;;;;;5010124;28;20515;-70
2023/06/02 06:53:35;;;;;;;10.07;4.43;;;26.20;99.90;;;;;;5007785;28;20425;-70
2023/06/02 06:56:02;;;;;;;9.33;4.40;;;26.90;99.90;;;;;;5009528;28;21256;-68
2023/06/02 06:58:28;;;;;;;10.40;4.40;;;27.70;99.90;;;;;;5009531;28;20408;-70
2023/06/02 07:00:53;;;;;;;8.40;4.10;;;28.30;99.90;;;;;;5009431;28;20397;-71
2023/06/02 07:03:19;;;;;;;10.60;4.60;;;28.10;99.90;;;;;;5008635;28;20487;-71
2023/06/02 07:05:46;;;;;;;9.60;4.70;;;28.00;99.90;;;;;;5008786;28;20409;-70
2023/06/02 07:08:12;;;;;;;9.88;4.40;;;28.10;99.90;;;;;;5009519;28;20489;-70
2023/06/02 07:10:37;;;;;;;10.13;5.10;;;25.90;99.90;;;;;;5009896;28;20957;-70
2023/06/02 07:13:03;;;;;;;12.00;5.60;;;24.40;99.90;;;;;;5006097;28;20490;-69
2023/06/02 07:15:29;;;;;;;10.60;4.70;;;23.70;99.90;;;;;;5005272;28;20467;-70
2023/06/02 07:17:54;;;;;;;11.77;5.50;;;23.60;99.90;;;;;;5007561;28;20492;-70
2023/06/02 07:20:20;;;;;;;10.57;5.30;;;24.30;99.90;;;;;;5008394;28;20396;-69
2023/06/02 07:22:46;;;;;;;10.13;4.60;;;26.10;99.90;;;;;;5005261;28;20894;-70
2023/06/02 07:25:11;;;;;;;10.20;4.60;;;26.50;99.90;;;;;;4991422;28;20422;-70
2023/06/02 07:27:37;;;;;;;9.30;4.40;;;27.00;99.90;;;;;;4989759;28;20398;-70
2023/06/02 07:30:03;;;;;;;9.77;4.80;;;27.70;99.90;;;;;;4990667;28;20956;-70
2023/06/02 07:32:29;;;;;;;9.30;4.45;;;27.50;99.90;;;;;;5007553;28;20489;-70
2023/06/02 07:34:54;;;;;;;10.20;5.00;;;27.70;99.90;;;;;;5009610;28;20568;-70
2023/06/02 07:37:20;;;;;;;11.90;5.27;;;27.70;99.90;;;;;;5008151;28;20777;-70
2023/06/02 07:39:46;;;;;;;11.27;4.82;;;27.30;99.90;;;;;;5008989;28;20503;-71
2023/06/02 07:42:12;;;;;;;12.07;4.80;;;27.30;99.90;;;;;;5008118;28;20419;-68
2023/06/02 07:44:39;;;;;;;11.20;4.38;;;27.80;99.90;;;;;;5009317;28;20438;-70
2023/06/02 07:47:07;;;;;;;10.48;4.82;;;28.80;99.90;;;;;;5006133;28;21102;-69
2023/06/02 07:49:35;;;;;;;10.15;4.40;;;27.70;99.90;;;;;;5006334;28;20423;-69
2023/06/02 07:52:01;;;;;;;11.43;5.78;;;28.90;99.90;;;;;;5009589;28;20756;-69
2023/06/02 07:54:26;;;;;;;12.17;5.20;;;28.20;99.90;;;;;;5009841;28;20490;-69
2023/06/02 07:56:52;;;;;;;9.93;4.53;;;26.90;99.90;;;;;;5009878;28;20504;-70
2023/06/02 07:59:18;;;;;;;10.07;5.28;;;27.80;99.90;;;;;;5009318;28;20860;-69
2023/06/02 08:01:45;;;;;;;9.82;5.22;;;28.70;99.90;;;;;;5008973;28;20444;-70
2023/06/02 08:04:11;;;;;;;11.00;5.30;;;28.30;99.90;;;;;;5009597;28;20427;-70
2023/06/02 08:06:36;;;;;;;10.00;5.28;;;27.80;99.90;;;;;;5010463;28;20401;-70
2023/06/02 08:09:03;;;;;;;9.70;4.50;;;27.40;99.90;;;;;;5010455;28;20409;-70
2023/06/02 08:11:28;;;;;;;16.87;5.20;;;27.40;99.90;;;;;;5010562;28;20501;-69
2023/06/02 08:13:54;;;;;;;10.40;5.50;;;28.40;99.90;;;;;;5012101;28;20868;-70
2023/06/02 08:16:20;;;;;;;9.73;5.03;;;29.00;99.90;;;;;;5020153;28;20400;-69
2023/06/02 08:18:46;;;;;;;11.60;5.60;;;29.00;99.90;;;;;;5025587;28;20408;-69
2023/06/02 08:21:11;;;;;;;11.40;5.10;;;27.50;99.90;;;;;;5015910;28;20839;-70
2023/06/02 08:23:37;;;;;;;12.13;5.90;;;28.30;99.90;;;;;;5016385;28;20412;-70
2023/06/02 08:26:03;;;;;;;9.43;4.73;;;29.50;99.90;;;;;;5017032;28;20412;-70
2023/06/02 08:28:29;;;;;;;10.65;5.00;;;30.30;99.90;;;;;;5023305;28;20407;-70
2023/06/02 08:30:58;;;;;;;10.85;5.10;;;29.80;99.90;;;;;;5029842;28;20404;-70
2023/06/02 08:33:24;;;;;;;12.77;4.82;;;30.40;99.90;;;;;;5018031;28;20454;-70
2023/06/02 08:35:51;;;;;;;11.85;5.30;;;31.30;99.90;;;;;;5013039;28;20401;-70
2023/06/02 08:38:17;;;;;;;10.65;5.00;;;30.90;99.90;;;;;;5013938;28;20392;-71
2023/06/02 08:40:46;;;;;;;11.00;5.17;;;29.20;99.90;;;;;;5014477;28;20401;-71
2023/06/02 08:43:13;;;;;;;11.77;4.93;;;29.20;99.90;;;;;;5007872;28;20418;-71
2023/06/02 08:45:42;;;;;;;10.73;5.23;;;29.40;99.90;;;;;;4996452;28;20413;-71
2023/06/02 08:48:13;;;;;;;10.60;4.90;;;29.00;99.90;;;;;;4978559;28;20420;-71
2023/06/02 08:50:42;;;;;;;10.98;5.55;;;27.10;99.90;;;;;;4995353;28;20919;-71
2023/06/02 08:53:11;;;;;;;9.48;4.85;;;28.10;99.90;;;;;;5015791;28;20409;-71
2023/06/02 08:55:39;;;;;;;10.95;5.22;;;29.10;99.90;;;;;;5016031;28;20412;-71
2023/06/02 08:58:05;;;;;;;13.20;5.70;;;29.10;99.90;;;;;;5015628;28;20413;-71
2023/06/02 09:00:31;;;;;;;10.88;5.90;;;29.70;99.90;;;;;;5019607;28;20949;-70
2023/06/02 09:02:56;;;;;;;18.95;16.10;;;30.00;99.90;;;;;;5019988;28;20417;-70
2023/06/02 09:05:22;;;;;;;10.70;5.70;;;30.60;99.90;;;;;;5018162;28;20404;-70
2023/06/02 09:08:05;;;;;;;13.80;5.97;;;31.30;99.90;;;;;;5015799;28;21074;-70
2023/06/02 09:10:31;;;;;;;13.00;6.03;;;31.50;99.90;;;;;;5016021;28;20467;-71
2023/06/02 09:12:57;;;;;;;10.47;5.40;;;32.30;99.90;;;;;;5016084;28;20421;-71
2023/06/02 09:15:24;;;;;;;12.40;5.25;;;31.60;99.90;;;;;;5014106;28;20781;-70
2023/06/02 09:17:51;;;;;;;11.18;5.05;;;32.00;99.90;;;;;;4996870;28;20413;-70
2023/06/02 09:20:16;;;;;;;13.77;5.40;;;31.70;99.90;;;;;;5013023;28;20417;-70
2023/06/02 09:22:53;;;;;;;10.87;5.50;;;31.70;99.90;;;;;;5011744;28;20405;-70
2023/06/02 09:25:24;;;;;;;10.70;5.93;;;30.60;99.90;;;;;;5013158;28;20400;-71
2023/06/02 09:27:55;;;;;;;10.30;5.70;;;30.70;99.90;;;;;;5010502;28;20397;-71
2023/06/02 09:30:21;;;;;;;15.48;5.68;;;30.90;99.90;;;;;;5012034;28;20401;-70
2023/06/02 09:32:55;;;;;;;10.80;5.70;;;29.30;99.90;;;;;;5005001;28;20534;-71
2023/06/02 09:35:41;;;;;;;12.40;5.75;;;29.00;99.90;;;;;;5010890;28;20431;-70
2023/06/02 09:38:12;;;;;;;10.57;5.40;;;29.10;99.90;;;;;;5011377;28;20451;-70
2023/06/02 09:40:40;;;;;;;9.15;4.55;;;28.30;99.90;;;;;;5013768;28;20437;-70
2023/06/02 09:43:12;;;;;;;11.30;5.13;;;28.40;99.90;;;;;;5013568;28;20478;-71
2023/06/02 09:45:47;;;;;;;11.20;5.00;;;27.90;99.90;;;;;;5014499;28;20404;-72
2023/06/02 09:48:27;;;;;;;11.93;5.32;;;28.50;99.90;;;;;;5013818;28;20536;-71
2023/06/02 09:50:53;;;;;;;11.35;5.00;;;27.30;99.90;;;;;;5014430;28;20405;-71
2023/06/02 09:53:19;;;;;;;10.48;5.00;;;27.20;99.90;;;;;;5013272;28;20887;-72
2023/06/02 09:55:48;;;;;;;10.23;5.18;;;28.00;99.90;;;;;;5014470;28;20496;-71
2023/06/02 09:58:13;;;;;;;10.40;4.70;;;28.40;99.90;;;;;;5012844;28;20412;-72
2023/06/02 10:00:39;;;;;;;13.38;5.15;;;28.80;99.90;;;;;;5012737;28;20397;-69
2023/06/02 10:03:06;;;;;;;11.25;5.50;;;28.80;99.90;;;;;;5017773;28;20440;-70
2023/06/02 10:05:37;;;;;;;10.38;5.07;;;29.10;99.90;;;;;;5019347;28;20491;-70
2023/06/02 10:08:30;;;;;;;12.93;5.40;;;29.50;99.90;;;;;;5017465;28;20421;-70
2023/06/02 10:11:08;;;;;;;10.80;5.03;;;29.60;99.90;;;;;;5013373;28;20385;-71
2023/06/02 10:14:11;;;;;;;10.07;5.27;;;29.90;99.90;;;;;;5009915;28;20409;-70
2023/06/02 10:16:53;;;;;;;11.23;5.55;;;30.20;99.90;;;;;;5011820;28;20825;-71
2023/06/02 10:20:03;;;;;;;10.57;4.88;;;31.60;99.90;;;;;;5009977;28;20410;-71
2023/06/02 10:22:58;;;;;;;9.77;5.28;;;31.00;99.90;;;;;;5002503;28;20405;-70
2023/06/02 10:25:30;;;;;;;8.90;4.70;;;29.20;99.90;;;;;;4996778;28;20404;-70
2023/06/02 10:27:56;;;;;;;10.75;4.85;;;29.10;99.90;;;;;;5011638;28;20397;-71
2023/06/02 10:30:22;;;;;;;10.40;4.70;;;29.60;99.90;;;;;;5009843;28;20424;-71
2023/06/02 10:32:49;;;;;;;9.43;4.22;;;29.60;99.90;;;;;;5011615;28;20895;-70
2023/06/02 10:35:16;;;;;;;10.20;5.30;;;28.90;99.90;;;;;;5011088;28;20389;-70
2023/06/02 10:37:41;;;;;;;9.23;4.22;;;27.70;99.90;;;;;;5009978;28;20416;-70
2023/06/02 10:40:10;;;;;;;9.80;4.90;;;26.80;99.90;;;;;;5009417;28;20417;-70
2023/06/02 10:42:37;;;;;;;10.10;4.57;;;26.50;99.90;;;;;;5011098;28;20397;-70
2023/06/02 10:45:18;;;;;;;9.23;4.50;;;26.10;99.90;;;;;;5011822;28;20416;-70
2023/06/02 10:47:46;;;;;;;11.15;4.88;;;25.90;99.90;;;;;;5010868;28;20728;-70
2023/06/02 10:50:14;;;;;;;10.85;4.60;;;26.60;99.90;;;;;;5009216;28;20420;-70
2023/06/02 10:52:58;;;;;;;11.70;4.50;;;26.40;99.90;;;;;;5010357;28;20425;-70
2023/06/02 10:55:25;;;;;;;9.90;4.32;;;26.70;99.90;;;;;;5010031;28;20728;-70
2023/06/02 10:57:56;;;;;;;9.23;3.90;;;26.90;99.90;;;;;;5009342;28;20519;-70
2023/06/02 11:00:36;;;;;;;8.80;4.20;;;26.50;99.90;;;;;;5008839;28;20409;-70
2023/06/02 11:03:17;;;;;;;9.93;4.22;;;26.30;99.90;;;;;;5009958;28;20926;-70
2023/06/02 11:05:44;;;;;;;10.50;4.30;;;26.30;99.90;;;;;;5010582;28;20781;-70
2023/06/02 11:08:15;;;;;;;10.45;4.50;;;26.00;99.90;;;;;;5004060;28;20699;-69
2023/06/02 11:10:45;;;;;;;12.73;4.35;;;26.40;99.90;;;;;;4990566;28;20412;-70
2023/06/02 11:13:12;;;;;;;10.17;4.30;;;26.60;99.90;;;;;;4990345;28;20497;-69
2023/06/02 11:15:38;;;;;;;11.65;4.10;;;27.00;99.90;;;;;;4989851;28;20959;-70
2023/06/02 11:18:31;;;;;;;10.48;4.60;;;27.20;99.90;;;;;;4997056;28;20756;-70
2023/06/02 11:21:15;;;;;;;11.40;4.60;;;27.20;99.90;;;;;;5010118;28;20916;-70
2023/06/02 11:23:42;;;;;;;12.10;3.80;;;26.60;99.90;;;;;;5008129;28;20416;-70
2023/06/02 11:26:10;;;;;;;10.60;4.18;;;26.40;99.90;;;;;;5007246;28;20512;-70
2023/06/02 11:28:35;;;;;;;9.33;4.37;;;26.70;99.90;;;;;;5001350;28;20427;-71
2023/06/02 11:31:07;;;;;;;8.93;4.10;;;26.20;99.90;;;;;;5003030;28;20909;-71
2023/06/02 11:33:35;;;;;;;9.20;3.85;;;26.40;99.90;;;;;;4999259;28;20427;-71
2023/06/02 11:36:12;;;;;;;9.25;4.03;;;26.10;99.90;;;;;;5010146;28;20439;-70
2023/06/02 11:38:39;;;;;;;8.68;3.55;;;25.50;99.90;;;;;;5013177;28;20424;-71
2023/06/02 11:41:24;;;;;;;9.15;3.90;;;25.00;99.90;;;;;;5010792;28;20398;-70
2023/06/02 11:44:01;;;;;;;10.40;3.60;;;25.40;99.90;;;;;;5009238;28;20408;-71
2023/06/02 11:46:27;;;;;;;8.90;3.65;;;25.80;99.90;;;;;;5008054;28;20413;-70
2023/06/02 11:48:52;;;;;;;8.20;4.00;;;25.80;99.90;;;;;;5008861;28;20504;-70
2023/06/02 11:51:18;;;;;;;9.32;3.40;;;26.00;99.90;;;;;;5006008;28;20412;-70
2023/06/02 11:53:46;;;;;;;8.80;3.57;;;26.50;99.90;;;;;;5009606;28;20479;-70
2023/06/02 11:56:13;;;;;;;9.10;4.05;;;26.50;99.90;;;;;;5009321;28;20400;-71
2023/06/02 11:58:46;;;;;;;10.68;3.78;;;25.80;99.90;;;;;;5008281;28;20425;-70
2023/06/02 12:01:21;;;;;;;8.67;4.23;;;25.80;99.90;;;;;;4988598;28;20452;-71
2023/06/02 12:04:04;;;;;;;9.07;4.07;;;25.90;99.90;;;;;;4997087;28;20836;-71
2023/06/02 12:06:34;;;;;;;8.63;3.83;;;26.30;99.90;;;;;;4996069;28;20450;-70
2023/06/02 12:09:11;;;;;;;9.30;3.90;;;26.90;99.90;;;;;;4998971;28;20412;-70
2023/06/02 12:11:36;;;;;;;8.50;3.90;;;26.90;99.90;;;;;;5001265;28;20507;-70
2023/06/02 12:14:09;;;;;;;9.43;3.90;;;27.10;99.90;;;;;;5002564;28;20499;-69
2023/06/02 12:16:38;;;;;;;7.63;3.33;;;27.00;99.90;;;;;;5007147;28;20423;-70
2023/06/02 12:19:21;;;;;;;7.50;3.40;;;27.20;99.90;;;;;;5011092;28;20763;-70
2023/06/02 12:21:53;;;;;;;8.30;3.80;;;26.90;99.90;;;;;;5006517;28;20409;-70
2023/06/02 12:24:29;;;;;;;10.05;3.90;;;26.80;99.90;;;;;;5008562;28;20452;-70
2023/06/02 12:26:55;;;;;;;9.30;4.15;;;26.90;99.90;;;;;;5002936;28;20772;-70
2023/06/02 12:29:21;;;;;;;10.63;3.77;;;27.20;99.90;;;;;;5008817;28;20393;-71
2023/06/02 12:32:05;;;;;;;10.20;3.23;;;27.50;99.90;;;;;;5006728;28;20422;-72
2023/06/02 12:34:33;;;;;;;8.55;3.88;;;27.50;99.90;;;;;;4999003;28;20406;-69
2023/06/02 12:37:00;;;;;;;9.05;3.50;;;27.20;99.90;;;;;;4994980;28;20385;-69
2023/06/02 12:39:26;;;;;;;9.63;4.20;;;27.30;99.90;;;;;;4998260;28;20396;-69
2023/06/02 12:41:51;;;;;;;8.50;4.07;;;27.30;99.90;;;;;;5000496;28;20427;-70
2023/06/02 12:44:18;;;;;;;10.65;3.60;;;27.10;99.90;;;;;;4994765;28;20430;-69